createdAt,value
2018-06-05T00:01:54.373Z,14.60
2018-06-05T00:04:22.629Z,14.90
2018-06-05T00:06:50.922Z,15.10
2018-06-05T00:09:19.182Z,15.73
2018-06-05T00:11:47.457Z,15.20
2018-06-05T00:14:15.718Z,15.97
2018-06-05T00:16:43.992Z,15.97
2018-06-05T00:19:12.238Z,15.43
2018-06-05T00:21:40.531Z,15.63
2018-06-05T00:24:08.902Z,15.50
2018-06-05T00:26:37.270Z,15.73
2018-06-05T00:29:05.546Z,16.07
2018-06-05T00:31:33.823Z,16.17
2018-06-05T00:34:02.388Z,16.87
2018-06-05T00:36:31.783Z,16.57
2018-06-05T00:39:00.268Z,16.87
2018-06-05T00:41:28.666Z,16.50
2018-06-05T00:43:56.922Z,17.60
2018-06-05T00:46:25.218Z,17.13
2018-06-05T00:48:54.253Z,16.60
2018-06-05T00:52:27.019Z,17.30
2018-06-05T00:54:55.285Z,19.27
2018-06-05T00:57:23.578Z,18.03
2018-06-05T00:59:51.874Z,18.53
2018-06-05T01:02:20.146Z,18.83
2018-06-05T01:04:48.458Z,19.07
2018-06-05T01:07:16.653Z,17.97
2018-06-05T01:09:44.899Z,18.93
2018-06-05T01:12:13.231Z,18.90
2018-06-05T01:14:42.073Z,19.17
2018-06-05T01:17:10.387Z,20.27
2018-06-05T01:19:38.761Z,19.47
2018-06-05T01:22:07.038Z,20.00
2018-06-05T01:24:35.395Z,20.37
2018-06-05T01:27:04.067Z,20.07
2018-06-05T01:29:32.414Z,20.70
2018-06-05T01:32:00.865Z,19.93
2018-06-05T01:34:29.134Z,19.87
2018-06-05T01:36:57.409Z,21.17
2018-06-05T01:39:25.665Z,20.77
2018-06-05T01:41:54.102Z,20.23
2018-06-05T01:44:22.403Z,20.23
2018-06-05T01:46:50.696Z,19.73
2018-06-05T01:49:18.959Z,20.23
2018-06-05T01:51:47.242Z,21.13
2018-06-05T01:54:15.506Z,19.20
2018-06-05T01:56:43.798Z,19.93
2018-06-05T01:59:12.075Z,19.87
2018-06-05T02:01:40.386Z,20.57
2018-06-05T02:04:08.654Z,20.50
2018-06-05T02:06:37.120Z,20.50
2018-06-05T02:09:06.400Z,21.07
2018-06-05T02:11:34.692Z,21.50
2018-06-05T02:14:03.014Z,21.80
2018-06-05T02:16:31.294Z,21.87
2018-06-05T02:18:59.586Z,22.60
2018-06-05T02:21:27.854Z,23.10
2018-06-05T02:23:56.115Z,22.20
2018-06-05T02:26:24.358Z,22.53
2018-06-05T02:28:53.159Z,23.20
2018-06-05T02:31:22.806Z,22.63
2018-06-05T02:33:51.095Z,22.47
2018-06-05T02:36:19.366Z,23.03
2018-06-05T02:38:47.790Z,23.20
2018-06-05T02:41:16.059Z,23.30
2018-06-05T02:43:44.339Z,22.90
2018-06-05T02:46:12.616Z,23.60
2018-06-05T02:48:40.917Z,23.07
2018-06-05T02:51:09.286Z,23.10
2018-06-05T02:53:37.562Z,22.67
2018-06-05T02:56:05.829Z,24.73
2018-06-05T02:58:34.499Z,24.73
2018-06-05T03:01:02.789Z,24.80
2018-06-05T03:03:31.935Z,24.53
2018-06-05T03:06:00.500Z,24.93
2018-06-05T03:08:28.945Z,25.30
2018-06-05T03:10:57.210Z,23.20
2018-06-05T03:13:25.490Z,23.63
2018-06-05T03:15:53.760Z,24.37
2018-06-05T03:18:22.042Z,23.93
2018-06-05T03:20:51.610Z,23.53
2018-06-05T03:23:20.014Z,24.30
2018-06-05T03:25:48.339Z,22.37
2018-06-05T03:28:18.173Z,22.93
2018-06-05T03:30:47.547Z,23.00
2018-06-05T03:33:15.651Z,24.47
2018-06-05T03:35:43.943Z,24.37
2018-06-05T03:38:13.426Z,24.53
2018-06-05T03:40:41.682Z,24.53
2018-06-05T03:43:09.954Z,25.03
2018-06-05T03:45:38.225Z,25.37
2018-06-05T03:48:07.185Z,23.77
2018-06-05T03:50:35.550Z,23.50
2018-06-05T03:53:04.986Z,24.73
2018-06-05T03:55:34.181Z,25.07
2018-06-05T03:58:02.655Z,24.47
2018-06-05T04:00:30.937Z,23.47
2018-06-05T04:02:59.237Z,23.47
2018-06-05T04:05:27.590Z,24.17
2018-06-05T04:07:56.786Z,24.23
2018-06-05T04:10:25.128Z,23.00
2018-06-05T04:12:53.149Z,24.13
2018-06-05T04:15:21.413Z,22.73
2018-06-05T04:17:49.791Z,22.70
2018-06-05T04:20:18.073Z,23.23
2018-06-05T04:22:46.347Z,22.40
2018-06-05T04:25:14.589Z,22.27
2018-06-05T04:27:42.982Z,21.53
2018-06-05T04:30:14.190Z,21.27
2018-06-05T04:32:42.466Z,22.73
2018-06-05T04:35:10.759Z,21.80
2018-06-05T04:37:39.913Z,22.43
2018-06-05T04:40:08.229Z,21.47
2018-06-05T04:42:37.184Z,20.83
2018-06-05T04:45:05.454Z,21.77
2018-06-05T04:47:33.705Z,21.10
2018-06-05T04:50:02.614Z,20.60
2018-06-05T04:52:31.011Z,20.53
2018-06-05T04:54:59.368Z,20.93
2018-06-05T04:57:27.630Z,21.23
2018-06-05T04:59:55.909Z,21.83
2018-06-05T05:02:24.177Z,19.87
2018-06-05T05:04:52.574Z,20.73
2018-06-05T05:07:20.909Z,21.13
2018-06-05T05:09:49.475Z,21.67
2018-06-05T05:12:17.766Z,22.30
2018-06-05T05:14:46.054Z,21.67
2018-06-05T05:17:14.318Z,21.37
2018-06-05T05:19:42.630Z,21.60
2018-06-05T05:22:11.879Z,21.30
2018-06-05T05:24:40.255Z,21.60
2018-06-05T05:27:08.951Z,22.07
2018-06-05T05:29:37.565Z,22.53
2018-06-05T05:32:07.250Z,21.53
2018-06-05T05:34:35.956Z,21.57
2018-06-05T05:37:04.308Z,20.77
2018-06-05T05:39:33.604Z,21.73
2018-06-05T05:42:01.907Z,21.87
2018-06-05T05:44:30.273Z,21.37
2018-06-05T05:46:58.630Z,21.67
2018-06-05T05:49:26.894Z,22.63
2018-06-05T05:51:55.237Z,21.40
2018-06-05T05:54:24.564Z,22.23
2018-06-05T05:56:52.926Z,22.67
2018-06-05T05:59:21.207Z,20.43
2018-06-05T06:01:49.466Z,22.00
2018-06-05T06:04:17.816Z,20.87
2018-06-05T06:06:46.630Z,22.77
2018-06-05T06:09:14.917Z,21.97
2018-06-05T06:11:43.175Z,22.17
2018-06-05T06:14:12.853Z,21.83
2018-06-05T06:16:41.166Z,21.93
2018-06-05T06:19:09.426Z,21.07
2018-06-05T06:21:37.698Z,21.40
2018-06-05T06:24:06.705Z,21.87
2018-06-05T06:26:35.066Z,22.13
2018-06-05T06:29:03.456Z,23.63
2018-06-05T06:31:31.722Z,22.30
2018-06-05T06:34:00.060Z,21.60
2018-06-05T06:36:28.267Z,20.63
2018-06-05T06:38:56.614Z,23.00
2018-06-05T06:41:24.957Z,22.47
2018-06-05T06:43:53.255Z,21.80
2018-06-05T06:46:21.518Z,22.73
2018-06-05T06:48:51.187Z,22.03
2018-06-05T06:51:20.918Z,22.07
2018-06-05T06:53:49.206Z,22.60
2018-06-05T06:56:17.502Z,23.07
2018-06-05T06:58:45.774Z,23.53
2018-06-05T07:01:14.061Z,21.73
2018-06-05T07:03:42.347Z,23.83
2018-06-05T07:06:11.717Z,23.60
2018-06-05T07:08:40.714Z,22.80
2018-06-05T07:11:09.151Z,23.20
2018-06-05T07:13:37.438Z,22.03
2018-06-05T07:16:05.442Z,22.47
2018-06-05T07:18:33.710Z,22.60
2018-06-05T07:21:02.004Z,21.00
2018-06-05T07:23:30.267Z,21.53
2018-06-05T07:25:58.547Z,23.33
2018-06-05T07:28:26.854Z,22.30
2018-06-05T07:30:55.205Z,22.53
2018-06-05T07:33:23.522Z,20.10
2018-06-05T07:35:51.919Z,21.87
2018-06-05T07:38:20.162Z,21.27
2018-06-05T07:40:48.487Z,21.97
2018-06-05T07:43:16.765Z,22.43
2018-06-05T07:45:45.435Z,22.47
2018-06-05T07:48:13.758Z,20.77
2018-06-05T07:50:44.114Z,20.63
2018-06-05T07:53:13.146Z,20.17
2018-06-05T07:55:41.560Z,19.40
2018-06-05T07:58:10.642Z,19.73
2018-06-05T08:00:38.942Z,18.50
2018-06-05T08:03:07.671Z,19.13
2018-06-05T08:05:36.090Z,19.47
2018-06-05T08:08:04.382Z,19.63
2018-06-05T08:10:33.255Z,19.07
2018-06-05T08:13:02.454Z,19.27
2018-06-05T08:15:32.003Z,19.43
2018-06-05T08:18:00.267Z,18.43
2018-06-05T08:20:29.102Z,17.83
2018-06-05T08:22:57.645Z,19.10
2018-06-05T08:25:25.971Z,17.63
2018-06-05T08:27:54.238Z,16.63
2018-06-05T08:30:23.230Z,16.03
2018-06-05T08:32:52.895Z,16.30
2018-06-05T08:35:21.314Z,16.20
2018-06-05T08:37:49.663Z,17.60
2018-06-05T08:40:19.501Z,16.93
2018-06-05T08:42:48.034Z,17.57
2018-06-05T08:45:16.347Z,17.00
2018-06-05T08:47:44.616Z,15.10
2018-06-05T08:50:12.948Z,16.00
2018-06-05T08:52:41.257Z,14.63
2018-06-05T08:55:09.967Z,14.90
2018-06-05T08:57:38.238Z,15.43
2018-06-05T09:00:06.528Z,16.07
2018-06-05T09:02:34.785Z,14.47
2018-06-05T09:05:03.070Z,16.37
2018-06-05T09:07:31.353Z,15.63
2018-06-05T09:09:59.654Z,15.67
2018-06-05T09:12:28.015Z,14.87
2018-06-05T09:14:56.315Z,15.70
2018-06-05T09:17:24.666Z,15.23
2018-06-05T09:19:52.966Z,16.03
2018-06-05T09:22:21.243Z,14.67
2018-06-05T09:24:49.548Z,14.47
2018-06-05T09:27:17.837Z,15.17
2018-06-05T09:29:46.135Z,13.87
2018-06-05T09:32:14.630Z,15.43
2018-06-05T09:34:42.911Z,14.60
2018-06-05T09:37:11.194Z,14.60
2018-06-05T09:39:40.872Z,15.33
2018-06-05T09:42:09.342Z,14.27
2018-06-05T09:44:39.611Z,13.40
2018-06-05T09:47:10.138Z,13.60
2018-06-05T09:49:40.174Z,13.30
2018-06-05T09:52:08.807Z,15.20
2018-06-05T09:54:37.054Z,14.77
2018-06-05T09:57:06.932Z,13.80
2018-06-05T09:59:35.209Z,12.43
2018-06-05T10:02:03.488Z,14.23
2018-06-05T10:04:31.773Z,13.00
2018-06-05T10:07:00.152Z,12.00
2018-06-05T10:09:28.440Z,13.77
2018-06-05T10:11:56.739Z,13.73
2018-06-05T10:14:24.994Z,12.90
2018-06-05T10:16:53.342Z,13.20
2018-06-05T10:19:21.873Z,12.90
2018-06-05T10:21:50.209Z,12.20
2018-06-05T10:24:21.417Z,13.30
2018-06-05T10:26:49.910Z,13.37
2018-06-05T10:29:18.191Z,11.60
2018-06-05T10:31:54.378Z,11.97
2018-06-05T10:34:22.943Z,11.57
2018-06-05T10:36:51.249Z,12.83
2018-06-05T10:39:19.570Z,12.77
2018-06-05T10:41:47.891Z,11.10
2018-06-05T10:44:16.193Z,11.83
2018-06-05T10:46:44.782Z,11.93
2018-06-05T10:49:13.019Z,11.20
2018-06-05T10:51:41.346Z,13.13
2018-06-05T10:54:09.630Z,11.10
2018-06-05T10:56:37.954Z,11.90
2018-06-05T10:59:06.234Z,12.30
2018-06-05T11:01:34.562Z,13.23
2018-06-05T11:04:02.902Z,11.47
2018-06-05T11:06:32.691Z,12.27
2018-06-05T11:09:01.019Z,12.17
2018-06-05T11:11:29.499Z,13.07
2018-06-05T11:13:57.777Z,11.50
2018-06-05T11:16:26.090Z,12.43
2018-06-05T11:18:54.367Z,10.83
2018-06-05T11:21:22.732Z,10.73
2018-06-05T11:23:51.251Z,11.67
2018-06-05T11:26:19.563Z,11.07
2018-06-05T11:28:48.434Z,10.27
2018-06-05T11:31:16.738Z,10.53
2018-06-05T11:33:46.505Z,10.67
2018-06-05T11:36:15.422Z,10.03
2018-06-05T11:38:43.700Z,10.03
2018-06-05T11:41:11.999Z,9.87
2018-06-05T11:43:40.287Z,8.97
2018-06-05T11:46:09.595Z,9.37
2018-06-05T11:48:38.243Z,9.73
2018-06-05T11:51:07.185Z,10.07
2018-06-05T11:53:36.527Z,8.37
2018-06-05T11:56:05.794Z,7.90
2018-06-05T11:58:34.214Z,8.13
2018-06-05T12:01:04.330Z,7.73
2018-06-05T12:03:34.466Z,8.83
2018-06-05T12:06:02.850Z,7.63
2018-06-05T12:08:31.151Z,8.10
2018-06-05T12:11:00.352Z,8.17
2018-06-05T12:13:29.886Z,8.70
2018-06-05T12:15:58.194Z,8.20
2018-06-05T12:18:26.479Z,7.70
2018-06-05T12:20:54.782Z,7.60
2018-06-05T12:23:23.105Z,7.30
2018-06-05T12:25:51.391Z,6.63
2018-06-05T12:28:19.695Z,6.60
2018-06-05T12:30:48.946Z,6.30
2018-06-05T12:33:17.256Z,6.33
2018-06-05T12:35:46.643Z,6.27
2018-06-05T12:38:14.919Z,7.47
2018-06-05T12:40:43.264Z,6.00
2018-06-05T12:43:11.690Z,7.10
2018-06-05T12:45:39.965Z,6.40
2018-06-05T12:48:08.281Z,6.60
2018-06-05T12:50:36.542Z,6.27
2018-06-05T12:53:04.533Z,6.23
2018-06-05T12:55:32.797Z,6.10
2018-06-05T12:58:01.584Z,5.70
2018-06-05T13:00:31.333Z,5.77
2018-06-05T13:03:00.015Z,6.40
2018-06-05T13:05:29.012Z,5.87
2018-06-05T13:07:57.534Z,6.80
2018-06-05T13:10:25.803Z,6.40
2018-06-05T13:12:54.147Z,6.77
2018-06-05T13:15:22.426Z,5.90
2018-06-05T13:17:50.685Z,6.00
2018-06-05T13:20:19.054Z,6.00
2018-06-05T13:22:47.493Z,5.60
2018-06-05T13:25:15.751Z,5.40
2018-06-05T13:27:45.458Z,4.93
2018-06-05T13:30:13.850Z,4.77
2018-06-05T13:32:42.153Z,5.70
2018-06-05T13:35:10.487Z,6.27
2018-06-05T13:37:38.839Z,5.23
2018-06-05T13:40:07.140Z,5.10
2018-06-05T13:42:35.722Z,5.10
2018-06-05T13:45:04.062Z,4.97
2018-06-05T13:47:32.353Z,5.27
2018-06-05T13:50:00.605Z,4.93
2018-06-05T13:52:28.942Z,5.20
2018-06-05T13:54:57.214Z,5.13
2018-06-05T13:57:26.663Z,4.67
2018-06-05T13:59:54.938Z,5.20
2018-06-05T14:02:23.206Z,5.13
2018-06-05T14:04:51.471Z,5.20
2018-06-05T14:07:20.155Z,5.87
2018-06-05T14:09:48.786Z,5.27
2018-06-05T14:12:17.982Z,5.20
2018-06-05T14:14:48.533Z,5.20
2018-06-05T14:17:16.896Z,5.07
2018-06-05T14:19:45.186Z,4.83
2018-06-05T14:22:13.566Z,5.20
2018-06-05T14:24:44.838Z,5.17
2018-06-05T14:27:14.565Z,5.47
2018-06-05T14:29:43.329Z,5.47
2018-06-05T14:32:11.660Z,4.90
2018-06-05T14:34:39.946Z,4.93
2018-06-05T14:37:10.299Z,6.07
2018-06-05T14:39:39.506Z,5.67
2018-06-05T14:42:10.162Z,5.10
2018-06-05T14:44:38.590Z,5.73
2018-06-05T14:47:07.019Z,6.10
2018-06-05T14:49:35.284Z,5.80
2018-06-05T14:52:03.670Z,6.23
2018-06-05T14:54:32.935Z,6.00
2018-06-05T14:57:01.231Z,6.07
2018-06-05T14:59:29.846Z,5.30
2018-06-05T15:01:58.106Z,4.87
2018-06-05T15:04:26.409Z,5.20
2018-06-05T15:06:54.743Z,5.67
2018-06-05T15:09:23.170Z,5.57
2018-06-05T15:11:51.422Z,5.37
2018-06-05T15:14:19.735Z,5.33
2018-06-05T15:16:48.046Z,5.40
2018-06-05T15:19:16.322Z,5.80
2018-06-05T15:21:44.665Z,5.20
2018-06-05T15:24:13.038Z,5.27
2018-06-05T15:26:41.345Z,5.30
2018-06-05T15:29:10.354Z,5.70
2018-06-05T15:31:38.658Z,5.20
2018-06-05T15:34:07.134Z,5.40
2018-06-05T15:36:35.436Z,5.37
2018-06-05T15:39:05.788Z,4.90
2018-06-05T15:41:34.806Z,5.53
2018-06-05T15:44:03.740Z,5.20
2018-06-05T15:46:32.051Z,5.37
2018-06-05T15:49:00.476Z,4.93
2018-06-05T15:51:28.755Z,5.10
2018-06-05T15:53:57.058Z,5.10
2018-06-05T15:56:25.310Z,5.23
2018-06-05T15:58:53.601Z,5.20
2018-06-05T16:01:21.854Z,5.60
2018-06-05T16:03:50.245Z,5.23
2018-06-05T16:06:19.135Z,5.33
2018-06-05T16:08:47.402Z,5.47
2018-06-05T16:11:15.678Z,4.83
2018-06-05T16:13:45.025Z,4.53
2018-06-05T16:16:15.084Z,4.80
2018-06-05T16:18:44.066Z,4.60
2018-06-05T16:21:14.926Z,4.70
2018-06-05T16:23:44.695Z,4.50
2018-06-05T16:26:13.130Z,4.27
2018-06-05T16:28:42.384Z,4.57
2018-06-05T16:31:10.653Z,4.00
2018-06-05T16:33:38.930Z,4.73
2018-06-05T16:36:07.213Z,4.57
2018-06-05T16:38:35.494Z,4.37
2018-06-05T16:41:03.826Z,4.30
2018-06-05T16:43:33.190Z,4.93
2018-06-05T16:46:01.488Z,5.00
2018-06-05T16:48:29.843Z,5.13
2018-06-05T16:50:58.258Z,5.27
2018-06-05T16:53:26.737Z,5.20
2018-06-05T16:55:55.050Z,4.93
2018-06-05T16:58:23.602Z,4.97
2018-06-05T17:00:51.983Z,5.40
2018-06-05T17:03:20.365Z,5.70
2018-06-05T17:05:49.919Z,5.23
2018-06-05T17:08:19.963Z,5.63
2018-06-05T17:10:48.242Z,5.83
2018-06-05T17:13:18.091Z,5.10
2018-06-05T17:15:46.455Z,4.17
2018-06-05T17:18:14.738Z,3.90
2018-06-05T17:20:43.123Z,4.30
2018-06-05T17:23:11.378Z,4.63
2018-06-05T17:25:39.852Z,4.57
2018-06-05T17:28:08.124Z,5.10
2018-06-05T17:30:36.447Z,5.23
2018-06-05T17:33:04.814Z,4.90
2018-06-05T17:35:33.096Z,4.70
2018-06-05T17:38:01.578Z,5.03
2018-06-05T17:40:30.031Z,5.07
2018-06-05T17:43:05.042Z,5.63
2018-06-05T17:45:33.404Z,5.80
2018-06-05T17:48:01.638Z,5.47
2018-06-05T17:50:29.970Z,6.33
2018-06-05T17:52:58.742Z,6.13
2018-06-05T17:55:29.017Z,6.40
2018-06-05T17:57:57.451Z,7.20
2018-06-05T18:00:25.826Z,7.57
2018-06-05T18:02:54.180Z,8.40
2018-06-05T18:05:23.808Z,8.27
2018-06-05T18:07:52.307Z,8.60
2018-06-05T18:10:20.735Z,9.13
2018-06-05T18:12:50.511Z,9.33
2018-06-05T18:15:18.834Z,9.77
2018-06-05T18:17:47.171Z,10.30
2018-06-05T18:20:18.011Z,9.77
2018-06-05T18:22:46.292Z,9.80
2018-06-05T18:25:16.231Z,9.60
2018-06-05T18:27:44.531Z,9.40
2018-06-05T18:30:12.830Z,9.70
2018-06-05T18:32:44.638Z,11.00
2018-06-05T18:35:12.902Z,11.10
2018-06-05T18:37:41.162Z,9.73
2018-06-05T18:40:09.707Z,10.37
2018-06-05T18:42:38.306Z,9.67
2018-06-05T18:45:10.836Z,9.87
2018-06-05T18:47:39.862Z,9.33
2018-06-05T18:50:08.145Z,9.90
2018-06-05T18:52:36.419Z,10.10
2018-06-05T18:55:04.714Z,9.60
2018-06-05T18:57:32.962Z,9.53
2018-06-05T19:00:01.235Z,9.93
2018-06-05T19:02:29.523Z,9.70
2018-06-05T19:04:57.818Z,9.20
2018-06-05T19:07:26.103Z,9.37
2018-06-05T19:09:54.413Z,8.87
2018-06-05T19:12:22.687Z,8.70
2018-06-05T19:14:50.951Z,9.27
2018-06-05T19:17:19.236Z,9.27
2018-06-05T19:19:49.118Z,9.47
2018-06-05T19:22:19.924Z,9.43
2018-06-05T19:24:48.223Z,9.33
2018-06-05T19:27:16.520Z,9.67
2018-06-05T19:29:44.833Z,9.60
2018-06-05T19:32:17.215Z,10.17
2018-06-05T19:34:45.529Z,9.93
2018-06-05T19:37:13.771Z,9.97
2018-06-05T19:39:42.039Z,11.37
2018-06-05T19:42:10.304Z,11.73
2018-06-05T19:44:38.688Z,11.17
2018-06-05T19:47:07.647Z,12.03
2018-06-05T19:49:38.225Z,11.73
2018-06-05T19:52:06.510Z,12.00
2018-06-05T19:54:35.314Z,12.73
2018-06-05T19:57:03.578Z,13.13
2018-06-05T19:59:31.845Z,13.40
2018-06-05T20:02:00.104Z,13.50
2018-06-05T20:04:28.449Z,14.20
2018-06-05T20:06:56.767Z,14.27
2018-06-05T20:09:25.066Z,14.33
2018-06-05T20:11:53.342Z,14.23
2018-06-05T20:14:21.598Z,14.27
2018-06-05T20:16:49.874Z,14.60
2018-06-05T20:19:18.139Z,14.63
2018-06-05T20:21:46.410Z,14.40
2018-06-05T20:24:15.074Z,14.93
2018-06-05T20:26:43.342Z,14.97
2018-06-05T20:29:11.613Z,15.37
2018-06-05T20:31:39.911Z,16.57
2018-06-05T20:34:07.986Z,15.50
2018-06-05T20:36:36.260Z,15.67
2018-06-05T20:39:07.597Z,15.80
2018-06-05T20:41:36.559Z,16.47
2018-06-05T20:44:04.918Z,16.23
2018-06-05T20:46:33.266Z,16.37
2018-06-05T20:49:01.646Z,16.23
2018-06-05T20:51:29.912Z,16.10
2018-06-05T20:53:58.886Z,15.97
2018-06-05T20:56:27.170Z,16.00
2018-06-05T20:58:55.999Z,16.83
2018-06-05T21:01:24.465Z,17.47
2018-06-05T21:03:52.726Z,16.10
2018-06-05T21:06:20.997Z,16.30
2018-06-05T21:08:49.254Z,17.13
2018-06-05T21:11:17.538Z,16.43
2018-06-05T21:13:45.818Z,16.70
2018-06-05T21:16:14.097Z,16.00
2018-06-05T21:18:42.341Z,16.23
2018-06-05T21:21:10.680Z,16.60
2018-06-05T21:23:38.933Z,16.13
2018-06-05T21:26:06.938Z,16.03
2018-06-05T21:28:35.286Z,15.83
2018-06-05T21:31:03.610Z,16.00
2018-06-05T21:33:31.875Z,16.03
2018-06-05T21:36:01.681Z,16.60
2018-06-05T21:38:30.034Z,16.13
2018-06-05T21:41:00.107Z,16.13
2018-06-05T21:43:28.625Z,17.03
2018-06-05T21:45:56.885Z,16.20
2018-06-05T21:48:26.790Z,15.27
2018-06-05T21:50:55.055Z,16.70
2018-06-05T21:53:23.386Z,16.77
2018-06-05T21:55:51.895Z,15.73
2018-06-05T21:58:20.141Z,15.90
2018-06-05T22:00:48.184Z,16.20
2018-06-05T22:03:16.438Z,16.03
2018-06-05T22:05:44.711Z,15.80
2018-06-05T22:08:12.979Z,15.50
2018-06-05T22:10:41.345Z,16.50
2018-06-05T22:13:10.699Z,15.60
2018-06-05T22:15:38.991Z,15.80
2018-06-05T22:18:07.252Z,15.83
2018-06-05T22:20:35.534Z,16.67
2018-06-05T22:23:03.793Z,16.63
2018-06-05T22:25:32.963Z,16.63
2018-06-05T22:28:01.214Z,16.13
2018-06-05T22:30:29.542Z,16.40
2018-06-05T22:32:57.842Z,16.30
2018-06-05T22:35:26.106Z,15.87
2018-06-05T22:37:54.393Z,16.70
2018-06-05T22:40:22.653Z,16.63
2018-06-05T22:42:50.939Z,16.40
2018-06-05T22:45:19.230Z,16.83
2018-06-05T22:47:47.497Z,15.47
2018-06-05T22:50:17.647Z,16.43
2018-06-05T22:52:46.281Z,16.67
2018-06-05T22:55:14.547Z,16.07
2018-06-05T22:57:43.070Z,17.37
2018-06-05T23:00:11.359Z,17.50
2018-06-05T23:02:39.662Z,16.40
2018-06-05T23:05:07.922Z,16.60
2018-06-05T23:07:36.203Z,16.43
2018-06-05T23:10:04.467Z,15.93
2018-06-05T23:12:34.433Z,15.93
2018-06-05T23:15:02.707Z,16.20
2018-06-05T23:17:32.094Z,16.70
2018-06-05T23:20:02.127Z,15.73
2018-06-05T23:22:31.865Z,15.60
2018-06-05T23:25:02.391Z,15.80
2018-06-05T23:27:30.835Z,15.53
2018-06-05T23:30:00.175Z,16.13
2018-06-05T23:32:28.533Z,15.30
2018-06-05T23:34:57.898Z,15.17
2018-06-05T23:37:26.178Z,16.03
2018-06-05T23:39:54.434Z,16.13
2018-06-05T23:42:23.135Z,16.53
2018-06-05T23:44:51.381Z,15.63
2018-06-05T23:47:19.669Z,15.70
2018-06-05T23:49:47.933Z,16.60
2018-06-05T23:52:16.231Z,16.10
2018-06-05T23:54:44.502Z,17.03
2018-06-05T23:57:12.786Z,16.17
2018-06-05T23:59:41.038Z,16.07
